createdAt,value
2023-05-03T00:00:12.339Z,100921.50
2023-05-03T00:01:33.853Z,100906.50
2023-05-03T00:02:57.616Z,100903.50
2023-05-03T00:04:19.117Z,100927.81
2023-05-03T00:05:41.515Z,100919.34
2023-05-03T00:07:04.088Z,100927.97
2023-05-03T00:08:27.744Z,100920.38
2023-05-03T00:09:51.878Z,100929.16
2023-05-03T00:11:13.285Z,100911.66
2023-05-03T00:12:38.830Z,100924.66
2023-05-03T00:14:01.283Z,100922.84
2023-05-03T00:15:26.741Z,100926.53
2023-05-03T00:17:10.245Z,100926.91
2023-05-03T00:18:32.552Z,100937.03
2023-05-03T00:19:56.344Z,100940.06
2023-05-03T00:21:20.161Z,100941.75
2023-05-03T00:23:11.381Z,100927.28
2023-05-03T00:24:41.449Z,100932.16
2023-05-03T00:26:03.657Z,100932.16
2023-05-03T00:27:28.542Z,100925.16
2023-05-03T00:28:50.975Z,100938.28
2023-05-03T00:30:15.695Z,100931.69
2023-05-03T00:31:46.467Z,100928.84
2023-05-03T00:33:32.887Z,100946.88
2023-05-03T00:34:58.490Z,100936.59
2023-05-03T00:36:20.615Z,100930.88
2023-05-03T00:37:44.678Z,100940.31
2023-05-03T00:39:07.416Z,100948.25
2023-05-03T00:40:38.587Z,100931.59
2023-05-03T00:42:00.443Z,100945.25
2023-05-03T00:43:23.203Z,100926.72
2023-05-03T00:44:48.873Z,100952.16
2023-05-03T00:46:17.402Z,100949.63
2023-05-03T00:47:39.828Z,100943.75
2023-05-03T00:49:04.429Z,100946.25
2023-05-03T00:50:34.735Z,100941.34
2023-05-03T00:52:07.968Z,100954.84
2023-05-03T00:53:32.492Z,100942.22
2023-05-03T00:54:55.154Z,100931.94
2023-05-03T00:56:21.465Z,100948.94
2023-05-03T00:57:48.121Z,100943.06
2023-05-03T00:59:16.204Z,100944.75
2023-05-03T01:00:47.708Z,100927.75
2023-05-03T01:02:28.702Z,100947.78
2023-05-03T01:04:16.309Z,100948.28
2023-05-03T01:06:01.322Z,100946.28
2023-05-03T01:07:38.141Z,100951.16
2023-05-03T01:09:07.018Z,100955.91
2023-05-03T01:14:45.311Z,100962.66
2023-05-03T01:16:12.775Z,100970.09
2023-05-03T01:17:41.173Z,100947.69
2023-05-03T01:19:27.120Z,100963.00
2023-05-03T01:20:52.090Z,100944.66
2023-05-03T01:22:23.802Z,100955.09
2023-05-03T01:23:58.343Z,100950.06
2023-05-03T01:25:21.630Z,100958.66
2023-05-03T01:26:44.326Z,100969.78
2023-05-03T01:28:05.886Z,100975.50
2023-05-03T01:29:29.744Z,100946.16
2023-05-03T01:30:56.782Z,100972.78
2023-05-03T01:32:30.590Z,100971.28
2023-05-03T01:34:04.179Z,100961.19
2023-05-03T01:35:33.982Z,100981.09
2023-05-03T01:37:03.481Z,100975.00
2023-05-03T01:38:25.947Z,100973.66
2023-05-03T01:39:55.490Z,100978.41
2023-05-03T01:41:24.084Z,100990.38
2023-05-03T01:42:47.739Z,100978.06
2023-05-03T01:44:12.118Z,100991.38
2023-05-03T01:45:34.339Z,100983.47
2023-05-03T01:46:59.041Z,100989.69
2023-05-03T01:48:21.870Z,100978.41
2023-05-03T01:49:43.025Z,100979.25
2023-05-03T01:51:06.079Z,100981.63
2023-05-03T01:52:28.856Z,100970.19
2023-05-03T01:53:50.074Z,100975.91
2023-05-03T01:55:12.558Z,100983.47
2023-05-03T01:56:53.044Z,100969.00
2023-05-03T01:58:18.137Z,100976.41
2023-05-03T01:59:40.714Z,100989.72
2023-05-03T02:01:08.731Z,100987.38
2023-05-03T02:02:34.396Z,100992.44
2023-05-03T02:03:55.714Z,100985.88
2023-05-03T02:05:18.028Z,100994.16
2023-05-03T02:06:41.040Z,100984.72
2023-05-03T02:08:02.231Z,100996.66
2023-05-03T02:09:25.721Z,100982.00
2023-05-03T02:10:47.927Z,100992.47
2023-05-03T02:12:16.010Z,101002.06
2023-05-03T02:13:39.018Z,100973.03
2023-05-03T02:15:01.425Z,100980.97
2023-05-03T02:16:22.739Z,100996.34
2023-05-03T02:17:47.512Z,100993.31
2023-05-03T02:19:11.262Z,100985.53
2023-05-03T02:20:40.374Z,101001.72
2023-05-03T02:22:01.956Z,100995.66
2023-05-03T02:23:24.187Z,101000.22
2023-05-03T02:24:47.138Z,100992.78
2023-05-03T02:26:10.075Z,101011.34
2023-05-03T02:27:32.636Z,101007.63
2023-05-03T02:28:59.716Z,101003.41
2023-05-03T02:30:22.501Z,101000.72
2023-05-03T02:31:44.820Z,100993.31
2023-05-03T02:33:06.011Z,100991.94
2023-05-03T02:34:33.403Z,101003.09
2023-05-03T02:35:55.743Z,100998.38
2023-05-03T02:37:17.006Z,100987.25
2023-05-03T02:38:40.306Z,101001.41
2023-05-03T02:40:02.666Z,100986.56
2023-05-03T02:41:25.448Z,101014.72
2023-05-03T02:42:48.988Z,100996.00
2023-05-03T02:44:18.089Z,100997.03
2023-05-03T02:45:40.246Z,101017.41
2023-05-03T02:47:04.985Z,101001.72
2023-05-03T02:48:27.176Z,100994.28
2023-05-03T02:49:49.717Z,101013.34
2023-05-03T02:51:12.025Z,101008.47
2023-05-03T02:52:33.030Z,101023.13
2023-05-03T02:53:55.580Z,101011.31
2023-05-03T02:55:17.575Z,101014.00
2023-05-03T02:56:43.752Z,101010.75
2023-05-03T02:58:13.525Z,101011.09
2023-05-03T02:59:34.765Z,101019.69
2023-05-03T03:00:57.563Z,101020.84
2023-05-03T03:02:26.474Z,101021.66
2023-05-03T03:03:49.883Z,101023.31
2023-05-03T03:05:12.480Z,101017.06
2023-05-03T03:06:36.125Z,101003.88
2023-05-03T03:07:58.783Z,101021.28
2023-05-03T03:09:21.632Z,101009.75
2023-05-03T03:10:44.363Z,101004.47
2023-05-03T03:12:06.747Z,101019.88
2023-05-03T03:13:31.629Z,101014.41
2023-05-03T03:14:55.322Z,101007.44
2023-05-03T03:16:16.887Z,101018.72
2023-05-03T03:17:40.412Z,101004.19
2023-05-03T03:19:08.921Z,101007.06
2023-05-03T03:20:31.886Z,101006.00
2023-05-03T03:21:53.403Z,101016.59
2023-05-03T03:23:16.069Z,101018.97
2023-05-03T03:24:39.027Z,101038.50
2023-05-03T03:26:02.264Z,101023.13
2023-05-03T03:27:28.190Z,101026.16
2023-05-03T03:28:53.979Z,101014.31
2023-05-03T03:30:21.283Z,101035.13
2023-05-03T03:31:53.942Z,101038.81
2023-05-03T03:33:15.803Z,101017.69
2023-05-03T03:34:39.256Z,101038.81
2023-05-03T03:36:00.785Z,101035.28
2023-05-03T03:37:28.143Z,101032.44
2023-05-03T03:38:50.927Z,101016.53
2023-05-03T03:40:13.600Z,101018.63
2023-05-03T03:41:37.560Z,101024.38
2023-05-03T03:43:01.489Z,101007.69
2023-05-03T03:44:26.191Z,101017.44
2023-05-03T03:45:49.596Z,101007.34
2023-05-03T03:47:13.443Z,101024.03
2023-05-03T03:48:34.854Z,101033.16
2023-05-03T03:49:57.346Z,101032.16
2023-05-03T03:51:20.135Z,101039.75
2023-05-03T03:52:42.786Z,101016.81
2023-05-03T03:54:05.117Z,101049.50
2023-05-03T03:55:31.569Z,101054.59
2023-05-03T03:57:10.994Z,101041.28
2023-05-03T03:58:36.165Z,101029.63
2023-05-03T04:00:02.716Z,101042.31
2023-05-03T04:01:37.318Z,101024.22
2023-05-03T04:03:00.636Z,101029.81
2023-05-03T04:04:26.892Z,101028.47
2023-05-03T04:05:51.513Z,101026.78
2023-05-03T04:07:18.861Z,101043.16
2023-05-03T04:08:43.801Z,101036.38
2023-05-03T04:10:41.296Z,101035.50
2023-05-03T04:12:04.594Z,101046.78
2023-05-03T04:13:31.138Z,101065.00
2023-05-03T04:14:54.347Z,101046.75
2023-05-03T04:16:19.276Z,101057.88
2023-05-03T04:17:40.985Z,101052.44
2023-05-03T04:19:08.624Z,101053.59
2023-05-03T04:20:35.382Z,101046.00
2023-05-03T04:21:59.137Z,101068.88
2023-05-03T04:23:24.908Z,101053.38
2023-05-03T04:24:48.216Z,101061.81
2023-05-03T04:26:20.334Z,101070.41
2023-05-03T04:27:51.746Z,101065.69
2023-05-03T04:29:14.751Z,101070.88
2023-05-03T04:30:39.591Z,101072.75
2023-05-03T04:32:04.380Z,101089.44
2023-05-03T04:33:27.528Z,101086.75
2023-05-03T04:34:53.954Z,101074.59
2023-05-03T04:36:19.069Z,101070.84
2023-05-03T04:37:43.623Z,101090.41
2023-05-03T04:39:11.704Z,101080.81
2023-05-03T04:40:35.091Z,101085.22
2023-05-03T04:42:09.339Z,101071.22
2023-05-03T04:43:33.184Z,101080.34
2023-05-03T04:44:56.150Z,101092.19
2023-05-03T04:46:18.771Z,101078.34
2023-05-03T04:47:43.354Z,101082.94
2023-05-03T04:49:05.879Z,101097.78
2023-05-03T04:50:31.406Z,101075.88
2023-05-03T04:51:55.196Z,101084.00
2023-05-03T04:53:20.100Z,101088.22
2023-05-03T04:54:54.625Z,101082.84
2023-05-03T04:56:17.681Z,101087.44
2023-05-03T04:57:39.797Z,101089.25
2023-05-03T04:59:04.620Z,101095.03
2023-05-03T05:00:28.023Z,101102.38
2023-05-03T05:01:58.744Z,101098.53
2023-05-03T05:03:22.495Z,101088.59
2023-05-03T05:04:45.889Z,101096.59
2023-05-03T05:06:13.636Z,101102.19
2023-05-03T05:07:46.837Z,101099.66
2023-05-03T05:09:09.524Z,101090.41
2023-05-03T05:14:34.816Z,101108.19
2023-05-03T05:16:00.719Z,101090.47
2023-05-03T05:17:23.408Z,101105.50
2023-05-03T05:18:48.563Z,101109.34
2023-05-03T05:20:13.706Z,101109.88
2023-05-03T05:21:45.272Z,101114.06
2023-05-03T05:23:08.045Z,101107.47
2023-05-03T05:24:54.344Z,101117.91
2023-05-03T05:26:18.675Z,101122.28
2023-05-03T05:27:41.778Z,101124.59
2023-05-03T05:29:07.069Z,101129.78
2023-05-03T05:30:30.166Z,101122.00
2023-05-03T05:32:08.213Z,101124.34
2023-05-03T05:33:31.768Z,101108.59
2023-05-03T05:34:56.945Z,101130.13
2023-05-03T05:36:29.322Z,101113.13
2023-05-03T05:37:51.571Z,101121.38
2023-05-03T05:39:29.528Z,101122.09
2023-05-03T05:40:52.226Z,101114.75
2023-05-03T05:42:17.907Z,101109.91
2023-05-03T05:43:41.061Z,101126.44
2023-05-03T05:45:03.990Z,101116.47
2023-05-03T05:47:18.545Z,101134.56
2023-05-03T05:48:43.710Z,101136.53
2023-05-03T05:50:18.522Z,101143.47
2023-05-03T05:51:48.363Z,101128.59
2023-05-03T05:53:11.118Z,101140.88
2023-05-03T05:54:37.934Z,101141.53
2023-05-03T05:56:05.478Z,101138.69
2023-05-03T05:57:29.206Z,101133.63
2023-05-03T05:58:51.829Z,101142.22
2023-05-03T06:00:27.656Z,101138.94
2023-05-03T06:02:41.529Z,101142.31
2023-05-03T06:04:09.375Z,101156.50
2023-05-03T06:05:34.294Z,101145.69
2023-05-03T06:06:57.088Z,101159.28
2023-05-03T06:08:27.994Z,101172.88
2023-05-03T06:09:52.797Z,101181.53
2023-05-03T06:11:20.215Z,101164.34
2023-05-03T06:12:43.142Z,101175.38
2023-05-03T06:14:11.147Z,101163.91
2023-05-03T06:15:39.022Z,101168.78
2023-05-03T06:17:09.160Z,101184.03
2023-05-03T06:18:39.958Z,101188.06
2023-05-03T06:20:05.052Z,101184.28
2023-05-03T06:21:30.467Z,101177.75
2023-05-03T06:22:52.732Z,101196.69
2023-05-03T06:24:21.348Z,101182.00
2023-05-03T06:25:55.486Z,101188.31
2023-05-03T06:27:18.855Z,101186.66
2023-05-03T06:28:43.308Z,101186.91
2023-05-03T06:30:08.866Z,101200.75
2023-05-03T06:31:34.418Z,101188.31
2023-05-03T06:32:59.470Z,101195.94
2023-05-03T06:34:23.908Z,101190.75
2023-05-03T06:35:59.405Z,101196.25
2023-05-03T06:37:26.379Z,101183.91
2023-05-03T06:38:50.472Z,101185.00
2023-05-03T06:40:13.681Z,101182.66
2023-05-03T06:41:39.092Z,101190.19
2023-05-03T06:43:01.997Z,101183.47
2023-05-03T06:44:36.161Z,101197.28
2023-05-03T06:45:58.749Z,101191.41
2023-05-03T06:47:24.302Z,101190.28
2023-05-03T06:51:07.709Z,101191.41
2023-05-03T06:52:33.216Z,101185.97
2023-05-03T06:53:56.437Z,101184.56
2023-05-03T06:55:19.134Z,101192.75
2023-05-03T06:57:10.861Z,101194.53
2023-05-03T06:58:51.805Z,101186.59
2023-05-03T07:00:16.294Z,101182.22
2023-05-03T07:01:40.440Z,101184.00
2023-05-03T07:03:05.259Z,101189.47
2023-05-03T07:04:39.800Z,101181.09
2023-05-03T07:06:02.533Z,101181.56
2023-05-03T07:07:26.130Z,101187.44
2023-05-03T07:08:52.698Z,101199.66
2023-05-03T07:10:31.596Z,101197.16
2023-05-03T07:11:54.567Z,101197.81
2023-05-03T07:13:24.772Z,101193.84
2023-05-03T07:14:47.738Z,101205.38
2023-05-03T07:16:11.942Z,101196.34
2023-05-03T07:17:35.292Z,101188.13
2023-05-03T07:19:00.400Z,101192.72
2023-05-03T07:20:53.947Z,101204.59
2023-05-03T07:22:20.994Z,101185.88
2023-05-03T07:23:53.861Z,101201.22
2023-05-03T07:25:20.365Z,101197.19
2023-05-03T07:26:50.689Z,101180.47
2023-05-03T07:28:13.088Z,101172.75
2023-05-03T07:29:35.469Z,101190.75
2023-05-03T07:30:58.743Z,101180.50
2023-05-03T07:32:29.023Z,101181.09
2023-05-03T07:33:51.879Z,101186.72
2023-05-03T07:35:15.029Z,101168.47
2023-05-03T07:36:37.407Z,101185.63
2023-05-03T07:38:03.089Z,101185.25
2023-05-03T07:39:38.125Z,101173.16
2023-05-03T07:41:00.848Z,101169.66
2023-05-03T07:42:23.748Z,101181.16
2023-05-03T07:43:53.632Z,101175.59
2023-05-03T07:45:16.793Z,101172.81
2023-05-03T07:46:50.277Z,101169.56
2023-05-03T07:48:17.764Z,101175.38
2023-05-03T07:49:45.704Z,101188.56
2023-05-03T07:51:08.328Z,101175.06
2023-05-03T07:52:40.041Z,101190.81
2023-05-03T07:54:22.150Z,101175.66
2023-05-03T07:55:48.111Z,101182.63
2023-05-03T07:57:12.221Z,101187.91
2023-05-03T07:58:43.658Z,101187.44
2023-05-03T08:00:19.859Z,101184.50
2023-05-03T08:01:51.024Z,101176.75
2023-05-03T08:03:16.159Z,101182.50
2023-05-03T08:04:39.663Z,101178.81
2023-05-03T08:06:04.779Z,101176.28
2023-05-03T08:07:33.318Z,101191.47
2023-05-03T08:09:00.833Z,101178.66
2023-05-03T08:10:26.593Z,101169.56
2023-05-03T08:12:12.885Z,101169.84
2023-05-03T08:15:26.109Z,101186.16
2023-05-03T08:16:48.245Z,101210.38
2023-05-03T08:18:22.305Z,101195.91
2023-05-03T08:19:50.097Z,101191.25
2023-05-03T08:21:13.770Z,101205.38
2023-05-03T08:22:45.572Z,101192.78
2023-05-03T08:24:10.479Z,101186.66
2023-05-03T08:25:37.582Z,101198.41
2023-05-03T08:27:01.692Z,101203.72
2023-05-03T08:28:26.350Z,101204.69
2023-05-03T08:30:25.495Z,101194.81
2023-05-03T08:31:49.364Z,101206.69
2023-05-03T08:33:12.253Z,101198.78
2023-05-03T08:34:38.183Z,101208.47
2023-05-03T08:36:00.644Z,101205.72
2023-05-03T08:38:20.238Z,101213.41
2023-05-03T08:39:42.861Z,101210.31
2023-05-03T08:41:14.951Z,101192.69
2023-05-03T08:43:01.053Z,101201.66
2023-05-03T08:44:25.746Z,101214.97
2023-05-03T08:45:49.998Z,101213.97
2023-05-03T08:48:07.607Z,101220.88
2023-05-03T08:50:08.302Z,101216.91
2023-05-03T08:51:32.122Z,101225.25
2023-05-03T08:53:16.158Z,101221.47
2023-05-03T08:54:49.223Z,101220.72
2023-05-03T08:56:20.519Z,101220.75
2023-05-03T08:57:45.150Z,101217.53
2023-05-03T08:59:14.885Z,101219.28
2023-05-03T09:02:26.141Z,101211.59
2023-05-03T09:04:05.204Z,101211.00
2023-05-03T09:07:45.172Z,101205.66
2023-05-03T09:09:47.317Z,101200.56
2023-05-03T09:13:04.069Z,101192.56
2023-05-03T09:14:27.311Z,101208.59
2023-05-03T09:16:04.918Z,101195.81
2023-05-03T09:18:56.127Z,101200.56
2023-05-03T09:20:18.645Z,101191.56
2023-05-03T09:21:53.566Z,101200.53
2023-05-03T09:25:48.577Z,101216.16
2023-05-03T09:27:22.761Z,101213.69
2023-05-03T09:28:56.819Z,101219.88
2023-05-03T09:33:32.764Z,101241.28
2023-05-03T09:35:19.207Z,101225.66
2023-05-03T09:44:10.925Z,101237.75
2023-05-03T09:46:30.477Z,101235.84
2023-05-03T10:03:36.861Z,101179.00
2023-05-03T10:05:28.292Z,101170.56
2023-05-03T10:07:19.713Z,101148.25
2023-05-03T10:08:53.058Z,101159.97
2023-05-03T10:11:07.546Z,101171.94
2023-05-03T10:16:57.966Z,101171.66
2023-05-03T10:19:48.695Z,101183.69
2023-05-03T10:24:15.377Z,101171.44
2023-05-03T10:26:37.169Z,101169.34
2023-05-03T10:28:15.959Z,101163.00
2023-05-03T10:30:09.554Z,101156.22
2023-05-03T10:31:51.130Z,101158.56
2023-05-03T10:33:40.213Z,101161.72
2023-05-03T10:35:06.424Z,101156.81
2023-05-03T10:36:59.098Z,101156.03
2023-05-03T10:38:53.081Z,101131.88
2023-05-03T10:41:07.412Z,101143.03
2023-05-03T10:43:03.384Z,101146.50
2023-05-03T10:44:59.491Z,101129.97
2023-05-03T10:46:52.882Z,101135.97
2023-05-03T10:48:23.853Z,101128.25
2023-05-03T10:49:48.317Z,101141.16
2023-05-03T10:51:41.484Z,101129.59
2023-05-03T10:53:14.633Z,101153.09
2023-05-03T10:55:01.018Z,101135.44
2023-05-03T10:56:28.451Z,101139.09
2023-05-03T10:57:59.114Z,101136.19
2023-05-03T10:59:47.923Z,101129.47
2023-05-03T11:01:33.727Z,101127.44
2023-05-03T11:03:56.226Z,101127.31
2023-05-03T11:05:24.028Z,101127.06
2023-05-03T11:07:11.348Z,101135.41
2023-05-03T11:09:47.048Z,101147.72
2023-05-03T11:12:07.561Z,101134.84
2023-05-03T11:13:39.993Z,101126.69
2023-05-03T11:16:09.814Z,101142.94
2023-05-03T11:17:45.995Z,101132.03
2023-05-03T11:20:11.913Z,101143.38
2023-05-03T11:21:37.846Z,101130.25
2023-05-03T11:23:02.879Z,101140.38
2023-05-03T11:24:27.566Z,101121.31
2023-05-03T11:25:50.759Z,101125.84
2023-05-03T11:27:16.908Z,101125.47
2023-05-03T11:28:58.279Z,101125.13
2023-05-03T11:30:28.117Z,101151.59
2023-05-03T11:31:53.096Z,101122.63
2023-05-03T11:33:16.044Z,101142.63
2023-05-03T11:34:42.914Z,101128.16
2023-05-03T11:38:30.360Z,101142.91
2023-05-03T11:39:53.151Z,101141.69
2023-05-03T11:41:16.934Z,101140.56
2023-05-03T11:42:52.547Z,101143.28
2023-05-03T11:44:17.724Z,101144.09
2023-05-03T11:45:44.440Z,101144.00
2023-05-03T11:47:09.641Z,101148.28
2023-05-03T11:48:35.257Z,101137.22
2023-05-03T11:50:02.416Z,101131.22
2023-05-03T11:51:54.410Z,101141.69
2023-05-03T11:53:20.896Z,101139.41
2023-05-03T11:54:49.442Z,101133.94
2023-05-03T11:57:05.577Z,101123.50
2023-05-03T11:58:28.104Z,101139.06
2023-05-03T11:59:50.539Z,101127.94
2023-05-03T12:01:13.242Z,101118.50
2023-05-03T12:03:40.943Z,101129.94
2023-05-03T12:05:14.371Z,101134.66
2023-05-03T12:06:38.886Z,101111.81
2023-05-03T12:08:05.591Z,101110.34
2023-05-03T12:09:39.899Z,101130.66
2023-05-03T12:11:11.103Z,101126.63
2023-05-03T12:12:50.081Z,101122.13
2023-05-03T12:14:25.076Z,101127.69
2023-05-03T12:18:01.120Z,101133.50
2023-05-03T12:19:32.792Z,101139.38
2023-05-03T12:22:41.983Z,101131.41
2023-05-03T12:24:10.821Z,101122.06
2023-05-03T12:26:15.112Z,101132.81
2023-05-03T12:27:49.976Z,101113.44
2023-05-03T12:29:35.129Z,101125.28
2023-05-03T12:31:23.841Z,101135.19
2023-05-03T12:32:46.934Z,101131.88
2023-05-03T12:34:31.746Z,101113.50
2023-05-03T12:35:54.141Z,101121.47
2023-05-03T12:37:27.070Z,101122.09
2023-05-03T12:38:56.200Z,101119.53
2023-05-03T12:40:34.271Z,101119.72
2023-05-03T12:43:26.665Z,101121.53
2023-05-03T12:45:03.158Z,101107.44
2023-05-03T12:46:34.453Z,101120.91
2023-05-03T12:48:05.622Z,101111.25
2023-05-03T12:49:30.904Z,101107.25
2023-05-03T12:51:13.362Z,101115.88
2023-05-03T12:52:52.418Z,101111.19
2023-05-03T12:54:19.062Z,101096.13
2023-05-03T12:55:43.110Z,101098.22
2023-05-03T12:57:15.600Z,101104.91
2023-05-03T13:04:00.931Z,101114.44
2023-05-03T13:05:35.836Z,101102.03
2023-05-03T13:07:01.069Z,101094.00
2023-05-03T13:08:33.548Z,101099.91
2023-05-03T13:11:22.402Z,101099.03
2023-05-03T13:12:47.543Z,101105.13
2023-05-03T13:14:14.670Z,101086.69
2023-05-03T13:15:38.139Z,101098.72
2023-05-03T13:17:03.357Z,101103.59
2023-05-03T13:22:01.139Z,101077.88
2023-05-03T13:23:25.885Z,101096.63
2023-05-03T13:24:58.485Z,101083.84
2023-05-03T13:26:21.942Z,101079.03
2023-05-03T13:28:13.238Z,101073.16
2023-05-03T13:29:47.570Z,101090.34
2023-05-03T13:31:15.281Z,101084.69
2023-05-03T13:32:37.675Z,101065.34
2023-05-03T13:34:12.177Z,101077.94
2023-05-03T13:35:52.375Z,101059.69
2023-05-03T13:37:44.851Z,101070.00
2023-05-03T13:39:27.808Z,101057.63
2023-05-03T13:42:01.058Z,101070.63
2023-05-03T13:43:48.448Z,101068.75
2023-05-03T13:45:37.264Z,101068.34
2023-05-03T13:46:59.722Z,101056.00
2023-05-03T13:48:38.111Z,101052.00
2023-05-03T13:50:01.592Z,101059.53
2023-05-03T13:55:53.622Z,101049.09
2023-05-03T13:57:24.934Z,101055.78
2023-05-03T14:00:01.510Z,101062.84
2023-05-03T14:01:28.711Z,101061.72
2023-05-03T14:02:58.038Z,101061.03
2023-05-03T14:04:24.094Z,101062.44
2023-05-03T14:05:53.983Z,101055.63
2023-05-03T14:07:28.360Z,101051.59
2023-05-03T14:09:20.618Z,101058.91
2023-05-03T14:11:07.027Z,101063.44
2023-05-03T14:12:40.213Z,101061.06
2023-05-03T14:15:14.626Z,101050.13
2023-05-03T14:16:48.618Z,101062.25
2023-05-03T14:18:34.623Z,101073.06
2023-05-03T14:21:12.414Z,101067.56
2023-05-03T14:22:38.802Z,101040.63
2023-05-03T14:24:09.226Z,101062.84
2023-05-03T14:25:47.346Z,101055.28
2023-05-03T14:27:17.565Z,101038.00
2023-05-03T14:28:51.913Z,101045.84
2023-05-03T14:30:16.398Z,101045.97
2023-05-03T14:31:42.680Z,101048.88
2023-05-03T14:33:07.895Z,101060.59
2023-05-03T14:34:38.702Z,101043.19
2023-05-03T14:36:05.669Z,101033.56
2023-05-03T14:37:38.012Z,101061.81
2023-05-03T14:39:02.353Z,101039.91
2023-05-03T14:40:25.415Z,101041.16
2023-05-03T14:41:51.432Z,101046.22
2023-05-03T14:43:19.975Z,101041.09
2023-05-03T14:44:46.120Z,101053.50
2023-05-03T14:46:14.089Z,101032.03
2023-05-03T14:47:59.024Z,101051.75
2023-05-03T14:49:59.261Z,101041.75
2023-05-03T14:51:23.861Z,101044.69
2023-05-03T14:52:52.423Z,101040.00
2023-05-03T14:54:16.261Z,101049.19
2023-05-03T14:55:39.283Z,101043.28
2023-05-03T14:57:05.178Z,101045.81
2023-05-03T14:58:28.020Z,101055.84
2023-05-03T14:59:51.148Z,101052.66
2023-05-03T15:01:22.228Z,101060.03
2023-05-03T15:02:47.021Z,101042.31
2023-05-03T15:04:12.042Z,101059.28
2023-05-03T15:05:46.193Z,101050.63
2023-05-03T15:07:14.363Z,101067.53
2023-05-03T15:08:40.604Z,101074.28
2023-05-03T15:10:10.776Z,101062.31
2023-05-03T15:11:33.697Z,101047.34
2023-05-03T15:12:56.343Z,101069.59
2023-05-03T15:14:20.698Z,101057.38
2023-05-03T15:15:44.507Z,101046.06
2023-05-03T15:17:06.799Z,101067.09
2023-05-03T15:18:29.327Z,101057.47
2023-05-03T15:19:54.184Z,101040.25
2023-05-03T15:21:27.656Z,101045.31
2023-05-03T15:23:04.672Z,101040.91
2023-05-03T15:24:41.756Z,101039.50
2023-05-03T15:26:15.280Z,101062.00
2023-05-03T15:27:43.626Z,101054.06
2023-05-03T15:29:08.429Z,101054.25
2023-05-03T15:30:31.512Z,101046.94
2023-05-03T15:31:59.753Z,101044.44
2023-05-03T15:35:29.858Z,101043.53
2023-05-03T15:36:56.736Z,101044.84
2023-05-03T15:38:19.641Z,101050.06
2023-05-03T15:39:41.988Z,101055.28
2023-05-03T15:41:13.025Z,101038.66
2023-05-03T15:43:00.976Z,101058.19
2023-05-03T15:44:23.616Z,101039.31
2023-05-03T15:45:47.434Z,101055.84
2023-05-03T15:47:16.912Z,101063.81
2023-05-03T15:48:39.690Z,101041.75
2023-05-03T15:50:02.551Z,101035.13
2023-05-03T15:51:37.951Z,101046.22
2023-05-03T15:53:04.245Z,101048.38
2023-05-03T15:54:28.598Z,101037.44
2023-05-03T15:56:04.050Z,101047.81
2023-05-03T15:57:37.626Z,101051.75
2023-05-03T15:59:00.127Z,101057.44
2023-05-03T16:00:35.955Z,101062.56
2023-05-03T16:02:23.965Z,101041.16
2023-05-03T16:03:48.106Z,101049.84
2023-05-03T16:05:13.231Z,101044.50
2023-05-03T16:06:36.317Z,101052.81
2023-05-03T16:07:59.418Z,101050.03
2023-05-03T16:09:26.164Z,101047.03
2023-05-03T16:10:48.809Z,101038.63
2023-05-03T16:12:11.414Z,101044.06
2023-05-03T16:13:36.391Z,101065.84
2023-05-03T16:15:01.175Z,101053.03
2023-05-03T16:16:24.017Z,101056.78
2023-05-03T16:17:49.879Z,101060.78
2023-05-03T16:19:12.737Z,101042.97
2023-05-03T16:20:35.296Z,101035.22
2023-05-03T16:22:01.420Z,101045.66
2023-05-03T16:23:43.231Z,101051.28
2023-05-03T16:25:13.738Z,101052.03
2023-05-03T16:29:25.694Z,101038.94
2023-05-03T16:31:14.316Z,101059.91
2023-05-03T16:32:38.971Z,101061.28
2023-05-03T16:34:21.689Z,101055.22
2023-05-03T16:36:45.776Z,101040.19
2023-05-03T16:39:57.374Z,101057.28
2023-05-03T16:41:26.163Z,101058.75
2023-05-03T16:42:55.276Z,101052.72
2023-05-03T16:44:28.801Z,101058.59
2023-05-03T16:46:05.171Z,101052.72
2023-05-03T16:47:30.366Z,101040.06
2023-05-03T16:48:55.693Z,101048.50
2023-05-03T16:50:40.351Z,101054.22
2023-05-03T16:52:13.916Z,101040.72
2023-05-03T16:53:37.333Z,101045.50
2023-05-03T16:55:01.060Z,101045.03
2023-05-03T16:56:31.761Z,101032.03
2023-05-03T16:58:05.570Z,101041.50
2023-05-03T16:59:34.063Z,101048.78
2023-05-03T17:01:39.528Z,101049.13
2023-05-03T17:03:09.765Z,101045.00
2023-05-03T17:07:12.954Z,101029.75
2023-05-03T17:08:36.259Z,101034.31
2023-05-03T17:10:10.864Z,101048.34
2023-05-03T17:11:40.576Z,101042.44
2023-05-03T17:13:04.156Z,101058.34
2023-05-03T17:14:28.268Z,101050.78
2023-05-03T17:15:59.401Z,101046.28
2023-05-03T17:17:32.013Z,101046.81
2023-05-03T17:18:57.953Z,101043.44
2023-05-03T17:20:28.305Z,101040.28
2023-05-03T17:21:55.746Z,101045.03
2023-05-03T17:23:24.270Z,101038.28
2023-05-03T17:27:51.551Z,101056.22
2023-05-03T17:29:20.293Z,101035.16
2023-05-03T17:31:18.270Z,101056.94
2023-05-03T17:32:43.635Z,101032.72
2023-05-03T17:34:17.791Z,101061.22
2023-05-03T17:35:43.116Z,101043.19
2023-05-03T17:37:16.751Z,101039.53
2023-05-03T17:39:41.460Z,101027.91
2023-05-03T17:41:10.863Z,101043.13
2023-05-03T17:42:37.935Z,101046.22
2023-05-03T17:44:13.480Z,101042.34
2023-05-03T17:45:47.568Z,101045.25
2023-05-03T17:47:31.870Z,101056.38
2023-05-03T17:49:00.130Z,101049.16
2023-05-03T17:50:29.506Z,101050.81
2023-05-03T17:51:59.191Z,101064.34
2023-05-03T17:53:23.354Z,101056.09
2023-05-03T17:54:48.830Z,101038.78
2023-05-03T17:56:20.323Z,101039.78
2023-05-03T17:57:48.493Z,101063.91
2023-05-03T17:59:47.768Z,101039.66
2023-05-03T18:01:37.907Z,101050.97
2023-05-03T18:03:00.622Z,101045.22
2023-05-03T18:04:23.404Z,101041.19
2023-05-03T18:05:46.191Z,101049.50
2023-05-03T18:07:10.696Z,101058.06
2023-05-03T18:08:35.461Z,101060.31
2023-05-03T18:09:59.871Z,101043.63
2023-05-03T18:11:28.286Z,101067.59
2023-05-03T18:13:07.785Z,101062.19
2023-05-03T18:14:41.189Z,101067.44
2023-05-03T18:16:11.963Z,101049.91
2023-05-03T18:17:33.356Z,101066.94
2023-05-03T18:19:12.198Z,101077.75
2023-05-03T18:20:49.141Z,101059.38
2023-05-03T18:22:19.922Z,101073.41
2023-05-03T18:23:52.406Z,101062.81
2023-05-03T18:25:20.274Z,101056.72
2023-05-03T18:26:49.943Z,101055.38
2023-05-03T18:28:17.542Z,101060.63
2023-05-03T18:33:04.017Z,101060.16
2023-05-03T18:34:32.267Z,101066.59
2023-05-03T18:36:28.415Z,101060.88
2023-05-03T18:38:09.017Z,101075.53
2023-05-03T18:39:35.448Z,101065.94
2023-05-03T18:42:04.942Z,101073.84
2023-05-03T18:44:09.676Z,101065.63
2023-05-03T18:45:42.227Z,101070.34
2023-05-03T18:47:38.812Z,101092.78
2023-05-03T18:49:55.949Z,101079.81
2023-05-03T18:54:11.248Z,101092.13